Time;durP1;ratioP1;P1;durP2;ratioP2;P2;SDS_P1;SDS_P2;PMS_P1;PMS_P2;Temp;Humidity;BMP_temperature;BMP_pressure;BME280_temperature;BME280_humidity;BME280_pressure;Samples;Min_cycle;Max_cycle;Signal;HPM_P1;HPM_P2
2022/11/22 00:01:07;;;;;;;68.80;30.47;;;0.10;99.90;;;;;;4840692;29;20201;-67
2022/11/22 00:03:36;;;;;;;71.73;30.53;;;0.10;99.90;;;;;;4841014;29;20216;-67
2022/11/22 00:06:04;;;;;;;70.63;31.30;;;0.10;99.90;;;;;;4840725;29;20204;-71
2022/11/22 00:08:32;;;;;;;67.07;29.53;;;0.00;99.90;;;;;;4828165;29;20233;-67
2022/11/22 00:11:01;;;;;;;67.43;29.27;;;0.00;99.90;;;;;;4810577;29;20205;-66
2022/11/22 00:13:31;;;;;;;57.50;27.80;;;0.00;99.90;;;;;;4822546;29;20282;-67
2022/11/22 00:16:00;;;;;;;64.20;26.77;;;0.00;99.90;;;;;;4822726;29;20220;-71
2022/11/22 00:18:28;;;;;;;63.97;26.80;;;-0.20;99.90;;;;;;4822486;29;20230;-67
2022/11/22 00:20:57;;;;;;;68.57;27.77;;;-0.20;99.90;;;;;;4823174;29;20300;-69
2022/11/22 00:23:25;;;;;;;72.53;28.47;;;-0.30;99.90;;;;;;4822525;29;20927;-67
2022/11/22 00:25:53;;;;;;;61.07;27.30;;;-0.40;99.90;;;;;;4822925;29;20206;-67
2022/11/22 00:28:22;;;;;;;66.60;28.87;;;-0.40;99.90;;;;;;4823455;29;20285;-66
2022/11/22 00:30:51;;;;;;;67.17;27.13;;;-0.50;99.90;;;;;;4823281;29;20198;-68
2022/11/22 00:33:20;;;;;;;67.27;27.30;;;-0.50;99.90;;;;;;4823169;29;20222;-67
2022/11/22 00:35:48;;;;;;;67.70;28.57;;;-0.50;99.90;;;;;;4823189;29;20202;-67
2022/11/22 00:38:16;;;;;;;60.70;27.60;;;-0.50;99.90;;;;;;4823207;29;20197;-68
2022/11/22 00:40:45;;;;;;;70.57;29.37;;;-0.50;99.90;;;;;;4823634;29;20205;-67
2022/11/22 00:43:13;;;;;;;64.33;29.13;;;-0.50;99.90;;;;;;4823331;29;20206;-66
2022/11/22 00:45:42;;;;;;;64.63;27.97;;;-0.50;99.90;;;;;;4823355;29;20237;-66
2022/11/22 00:48:11;;;;;;;63.43;26.70;;;-0.50;99.90;;;;;;4822992;29;20194;-66
2022/11/22 00:50:40;;;;;;;74.17;28.87;;;-0.60;99.90;;;;;;4823043;29;20210;-67
2022/11/22 00:53:08;;;;;;;60.73;27.90;;;-0.60;99.90;;;;;;4822876;29;20696;-72
2022/11/22 00:55:36;;;;;;;66.23;29.97;;;-0.50;99.90;;;;;;4823271;29;20232;-70
2022/11/22 00:58:05;;;;;;;65.63;30.67;;;-0.30;99.90;;;;;;4823169;29;20213;-68
2022/11/22 01:00:33;;;;;;;66.83;29.93;;;-0.30;99.90;;;;;;4823177;29;20197;-67
2022/11/22 01:03:01;;;;;;;72.80;29.50;;;-0.30;99.90;;;;;;4823000;29;20206;-69
2022/11/22 01:05:31;;;;;;;72.90;29.00;;;-0.40;99.90;;;;;;4822997;29;20213;-68
2022/11/22 01:07:59;;;;;;;63.13;28.07;;;-0.40;99.90;;;;;;4814657;29;20728;-69
2022/11/22 01:10:28;;;;;;;70.30;29.10;;;-0.30;99.90;;;;;;4819037;29;20692;-67
2022/11/22 01:12:57;;;;;;;66.37;28.97;;;-0.20;99.90;;;;;;4822831;29;20237;-67
2022/11/22 01:15:25;;;;;;;71.67;27.73;;;-0.10;99.90;;;;;;4822743;29;20752;-68
2022/11/22 01:17:54;;;;;;;62.03;27.97;;;-0.20;99.90;;;;;;4814947;29;20205;-68
2022/11/22 01:20:22;;;;;;;62.77;29.53;;;-0.30;99.90;;;;;;4815035;29;20725;-68
2022/11/22 01:22:52;;;;;;;64.90;28.10;;;-0.30;99.90;;;;;;4826064;29;20213;-68
2022/11/22 01:25:21;;;;;;;64.10;28.37;;;-0.40;99.90;;;;;;4826374;29;20209;-68
2022/11/22 01:27:49;;;;;;;68.70;27.47;;;-0.40;99.90;;;;;;4825901;29;20205;-68
2022/11/22 01:30:18;;;;;;;64.57;28.03;;;-0.40;99.90;;;;;;4826269;29;20194;-67
2022/11/22 01:32:46;;;;;;;69.13;29.97;;;-0.50;99.90;;;;;;4826237;29;20206;-68
2022/11/22 01:35:15;;;;;;;64.33;27.97;;;-0.40;99.90;;;;;;4826278;29;20320;-68
2022/11/22 01:37:43;;;;;;;72.20;29.20;;;-0.40;99.90;;;;;;4826111;29;20222;-68
2022/11/22 01:40:13;;;;;;;67.33;29.17;;;-0.30;99.90;;;;;;4826175;29;20296;-69
2022/11/22 01:42:49;;;;;;;63.97;26.67;;;-0.40;99.90;;;;;;4826191;29;20201;-67
2022/11/22 01:45:41;;;;;;;67.30;27.77;;;-0.40;99.90;;;;;;4825941;29;20203;-67
2022/11/22 01:48:22;;;;;;;61.13;28.37;;;-0.40;99.90;;;;;;4825734;29;20693;-68
2022/11/22 01:50:55;;;;;;;65.20;27.70;;;-0.40;99.90;;;;;;4825901;29;20285;-67
2022/11/22 01:53:29;;;;;;;73.43;29.73;;;-0.30;99.90;;;;;;4826017;29;20198;-67
2022/11/22 01:56:02;;;;;;;62.50;27.23;;;-0.30;99.90;;;;;;4825820;29;20296;-66
2022/11/22 01:58:33;;;;;;;65.60;28.27;;;-0.30;99.90;;;;;;4825912;29;20206;-73
2022/11/22 02:01:02;;;;;;;68.20;28.10;;;-0.30;99.90;;;;;;4825976;29;20218;-72
2022/11/22 02:03:34;;;;;;;53.67;26.33;;;-0.20;99.90;;;;;;4825518;29;20237;-71
2022/11/22 02:06:03;;;;;;;66.90;29.90;;;-0.20;99.90;;;;;;4825617;29;20746;-74
2022/11/22 02:08:39;;;;;;;65.40;28.07;;;-0.20;99.90;;;;;;4825407;29;20650;-73
2022/11/22 02:11:11;;;;;;;62.77;29.03;;;-0.30;99.90;;;;;;4825786;29;20209;-73
2022/11/22 02:13:42;;;;;;;63.23;28.00;;;-0.20;99.90;;;;;;4825280;29;20209;-67
2022/11/22 02:16:12;;;;;;;65.10;29.30;;;-0.20;99.90;;;;;;4825572;29;20572;-74
2022/11/22 02:18:40;;;;;;;55.63;28.43;;;-0.20;99.90;;;;;;4825307;29;20258;-70
2022/11/22 02:21:09;;;;;;;66.97;29.67;;;-0.20;99.90;;;;;;4825502;29;20229;-69
2022/11/22 02:23:55;;;;;;;58.00;27.20;;;-0.10;99.90;;;;;;4825323;29;20272;-68
2022/11/22 02:26:29;;;;;;;66.43;27.50;;;-0.10;99.90;;;;;;4825369;29;20205;-73
2022/11/22 02:29:02;;;;;;;70.60;30.63;;;-0.10;99.90;;;;;;4825348;29;20258;-67
2022/11/22 02:31:41;;;;;;;72.13;30.50;;;0.00;99.90;;;;;;4825151;29;20603;-72
2022/11/22 02:34:10;;;;;;;76.80;32.67;;;0.00;99.90;;;;;;4814391;29;20329;-67
2022/11/22 02:36:42;;;;;;;72.00;30.80;;;-0.10;99.90;;;;;;4807096;29;20229;-67
2022/11/22 02:39:14;;;;;;;74.17;30.83;;;-0.10;99.90;;;;;;4807018;29;20210;-67
2022/11/22 02:41:45;;;;;;;77.20;32.23;;;0.00;99.90;;;;;;4807221;29;20202;-67
2022/11/22 02:44:14;;;;;;;71.13;31.53;;;0.00;99.90;;;;;;4807022;29;20673;-67
2022/11/22 02:46:49;;;;;;;66.50;27.97;;;0.00;99.90;;;;;;4806889;29;20798;-66
2022/11/22 02:49:19;;;;;;;81.97;32.80;;;0.00;99.90;;;;;;4806708;29;20289;-66
2022/11/22 02:51:47;;;;;;;77.83;32.20;;;0.00;99.90;;;;;;4806875;29;20208;-66
2022/11/22 02:54:16;;;;;;;77.67;29.20;;;0.00;99.90;;;;;;4806825;29;20199;-68
2022/11/22 02:56:46;;;;;;;74.33;29.93;;;0.00;99.90;;;;;;4806899;29;20213;-66
2022/11/22 02:59:15;;;;;;;67.07;30.00;;;0.10;99.90;;;;;;4806888;29;20222;-67
2022/11/22 03:01:46;;;;;;;66.07;27.50;;;0.10;99.90;;;;;;4806740;29;20198;-67
2022/11/22 03:04:23;;;;;;;66.10;29.53;;;0.10;99.90;;;;;;4806608;29;20211;-67
2022/11/22 03:06:54;;;;;;;76.93;28.93;;;0.10;99.90;;;;;;4806770;29;20241;-68
2022/11/22 03:09:23;;;;;;;77.57;31.73;;;0.10;99.90;;;;;;4806133;29;20246;-67
2022/11/22 03:11:53;;;;;;;73.80;31.53;;;0.10;99.90;;;;;;4806718;29;20210;-66
2022/11/22 03:14:22;;;;;;;74.97;31.53;;;0.20;99.90;;;;;;4806378;29;20211;-67
2022/11/22 03:16:51;;;;;;;76.10;31.50;;;0.30;99.90;;;;;;4806387;29;20658;-66
2022/11/22 03:19:19;;;;;;;75.13;31.03;;;0.30;99.90;;;;;;4806236;29;20571;-70
2022/11/22 03:21:47;;;;;;;75.40;32.27;;;0.40;99.90;;;;;;4806314;29;20217;-67
2022/11/22 03:24:16;;;;;;;81.27;32.87;;;0.50;99.90;;;;;;4806577;29;20229;-67
2022/11/22 03:26:47;;;;;;;65.70;30.50;;;0.60;99.90;;;;;;4806296;29;20206;-68
2022/11/22 03:29:17;;;;;;;76.80;32.90;;;0.70;99.90;;;;;;4806322;29;20199;-72
2022/11/22 03:31:46;;;;;;;74.47;32.53;;;0.70;99.90;;;;;;4806282;29;20219;-66
2022/11/22 03:34:15;;;;;;;72.30;30.83;;;0.70;99.90;;;;;;4805956;29;20293;-66
2022/11/22 03:36:43;;;;;;;77.17;32.50;;;0.80;99.90;;;;;;4809281;29;20233;-70
2022/11/22 03:39:11;;;;;;;64.50;30.30;;;0.80;99.90;;;;;;4812677;29;20288;-67
2022/11/22 03:41:40;;;;;;;67.30;31.67;;;0.80;99.90;;;;;;4824201;29;20581;-66
2022/11/22 03:44:08;;;;;;;69.30;29.60;;;0.80;99.90;;;;;;4823929;29;20205;-66
2022/11/22 03:46:38;;;;;;;62.93;31.10;;;0.80;99.90;;;;;;4824210;29;20218;-69
2022/11/22 03:49:06;;;;;;;77.83;32.10;;;0.80;99.90;;;;;;4823789;29;21031;-66
2022/11/22 03:51:35;;;;;;;70.03;31.47;;;0.80;99.90;;;;;;4824015;29;20194;-66
2022/11/22 03:54:03;;;;;;;72.50;33.47;;;0.80;99.90;;;;;;4823956;29;20205;-67
2022/11/22 03:56:31;;;;;;;72.53;32.93;;;0.80;99.90;;;;;;4823897;29;20221;-68
2022/11/22 03:59:00;;;;;;;69.27;31.07;;;0.80;99.90;;;;;;4824042;29;20206;-68
2022/11/22 04:01:28;;;;;;;76.07;32.33;;;0.70;99.90;;;;;;4824006;29;20237;-67
2022/11/22 04:03:58;;;;;;;68.67;31.00;;;0.60;99.90;;;;;;4823715;29;20213;-67
2022/11/22 04:06:26;;;;;;;72.87;30.17;;;0.50;99.90;;;;;;4823716;29;20198;-67
2022/11/22 04:08:55;;;;;;;88.53;33.93;;;0.50;99.90;;;;;;4823686;29;20238;-69
2022/11/22 04:11:23;;;;;;;81.40;33.70;;;0.50;99.90;;;;;;4823707;29;20206;-66
2022/11/22 04:16:37;;;;;;;77.27;32.90;;;0.50;99.90;;;;;;4823618;29;20230;-68
2022/11/22 04:19:07;;;;;;;74.67;31.73;;;0.50;99.90;;;;;;4823828;29;20627;-67
2022/11/22 04:21:34;;;;;;;76.77;33.93;;;0.40;99.90;;;;;;4823837;29;20198;-67
2022/11/22 04:26:50;;;;;;;71.80;33.40;;;0.50;99.90;;;;;;4823555;29;20210;-73
2022/11/22 04:29:19;;;;;;;74.97;33.17;;;0.60;99.90;;;;;;4823904;29;20201;-71
2022/11/22 04:34:36;;;;;;;75.03;33.33;;;0.60;99.90;;;;;;4823574;29;20205;-70
2022/11/22 04:37:05;;;;;;;84.13;32.47;;;0.60;99.90;;;;;;4823510;29;20316;-68
2022/11/22 04:39:33;;;;;;;68.00;31.17;;;0.50;99.90;;;;;;4823218;29;20632;-69
2022/11/22 04:44:47;;;;;;;79.00;33.20;;;0.40;99.90;;;;;;4823520;29;20202;-69
2022/11/22 04:50:02;;;;;;;70.07;31.10;;;0.40;99.90;;;;;;4823891;29;20238;-68
2022/11/22 04:55:16;;;;;;;91.97;36.93;;;0.40;99.90;;;;;;4812168;29;20263;-68
2022/11/22 04:57:44;;;;;;;93.47;37.63;;;0.40;99.90;;;;;;4823827;29;20300;-68
2022/11/22 05:00:13;;;;;;;87.97;38.37;;;0.40;99.90;;;;;;4818460;29;20207;-68
2022/11/22 05:02:41;;;;;;;89.23;38.03;;;0.40;99.90;;;;;;4827593;29;20668;-68
2022/11/22 05:05:11;;;;;;;91.37;39.00;;;0.40;99.90;;;;;;4826873;29;20205;-69
2022/11/22 05:07:39;;;;;;;98.07;38.03;;;0.40;99.90;;;;;;4826485;29;20229;-69
2022/11/22 05:10:09;;;;;;;94.03;39.13;;;0.40;99.90;;;;;;4826392;29;20292;-68
2022/11/22 05:12:37;;;;;;;90.97;37.17;;;0.40;99.90;;;;;;4809792;29;21014;-68
2022/11/22 05:15:07;;;;;;;92.60;37.13;;;0.40;99.90;;;;;;4826292;29;20695;-69
2022/11/22 05:17:36;;;;;;;98.43;40.03;;;0.40;99.90;;;;;;4826478;29;20202;-69
2022/11/22 05:20:06;;;;;;;85.00;37.90;;;0.50;99.90;;;;;;4809906;29;20214;-67
2022/11/22 05:25:22;;;;;;;80.63;37.07;;;0.50;99.90;;;;;;4826203;29;20202;-67
2022/11/22 05:27:55;;;;;;;78.53;35.20;;;0.50;99.90;;;;;;4825963;29;20297;-68
2022/11/22 05:30:24;;;;;;;84.30;34.83;;;0.40;99.90;;;;;;4826051;29;20615;-68
2022/11/22 05:32:52;;;;;;;81.60;35.67;;;0.40;99.90;;;;;;4814289;29;20206;-68
2022/11/22 05:35:20;;;;;;;90.27;39.33;;;0.40;99.90;;;;;;4824099;29;20669;-68
2022/11/22 05:37:50;;;;;;;95.70;42.53;;;0.40;99.90;;;;;;4822508;29;20255;-69
2022/11/22 05:40:20;;;;;;;101.40;43.23;;;0.50;99.90;;;;;;4818730;29;20589;-68
2022/11/22 05:42:48;;;;;;;90.33;41.97;;;0.50;99.90;;;;;;4811969;29;20213;-69
2022/11/22 05:45:17;;;;;;;94.50;42.80;;;0.60;99.90;;;;;;4809509;29;20297;-73
2022/11/22 05:47:45;;;;;;;89.30;41.73;;;0.70;99.90;;;;;;4827053;29;20213;-68
2022/11/22 05:50:13;;;;;;;86.07;39.67;;;0.80;99.90;;;;;;4844044;29;20578;-69
2022/11/22 05:52:55;;;;;;;98.73;42.57;;;0.90;99.90;;;;;;4844182;29;20216;-68
2022/11/22 05:55:23;;;;;;;102.93;42.87;;;1.00;99.90;;;;;;4844145;29;20669;-67
2022/11/22 05:57:52;;;;;;;96.33;44.87;;;1.10;99.90;;;;;;4844208;29;20240;-69
2022/11/22 06:00:20;;;;;;;98.93;46.13;;;1.10;99.90;;;;;;4844026;29;20204;-69
2022/11/22 06:02:49;;;;;;;92.33;42.07;;;1.10;99.90;;;;;;4844214;29;20623;-69
2022/11/22 06:05:17;;;;;;;87.67;40.63;;;1.10;99.90;;;;;;4844002;29;20257;-67
2022/11/22 06:07:46;;;;;;;91.53;42.30;;;1.10;99.90;;;;;;4815172;29;20246;-70
2022/11/22 06:10:16;;;;;;;89.57;40.30;;;1.20;99.90;;;;;;4825678;29;20293;-68
2022/11/22 06:12:45;;;;;;;84.60;39.83;;;1.20;99.90;;;;;;4825341;29;20209;-66
2022/11/22 06:15:15;;;;;;;90.57;40.03;;;1.20;99.90;;;;;;4825547;29;20208;-67
2022/11/22 06:17:43;;;;;;;84.43;37.90;;;1.30;99.90;;;;;;4825479;29;20241;-67
2022/11/22 06:20:12;;;;;;;84.93;38.57;;;1.20;99.90;;;;;;4825108;29;20205;-68
2022/11/22 06:22:40;;;;;;;91.57;38.90;;;1.30;99.90;;;;;;4825223;29;20681;-68
2022/11/22 06:25:10;;;;;;;81.20;38.70;;;1.20;99.90;;;;;;4825214;29;20681;-68
2022/11/22 06:27:39;;;;;;;95.67;41.60;;;1.20;99.90;;;;;;4824384;29;20290;-71
2022/11/22 06:30:09;;;;;;;95.40;38.67;;;1.10;99.90;;;;;;4814642;29;20218;-68
2022/11/22 06:32:37;;;;;;;84.07;38.83;;;1.00;99.90;;;;;;4825058;29;20197;-68
2022/11/22 06:35:06;;;;;;;169.03;61.17;;;0.90;99.90;;;;;;4812771;29;20206;-68
2022/11/22 06:37:34;;;;;;;185.20;69.97;;;0.80;99.90;;;;;;4824860;29;20250;-68
2022/11/22 06:40:03;;;;;;;180.17;65.97;;;0.80;99.90;;;;;;4824934;29;20194;-68
2022/11/22 06:42:31;;;;;;;134.87;59.47;;;0.80;99.90;;;;;;4825163;29;20612;-74
2022/11/22 06:45:01;;;;;;;139.40;55.37;;;0.80;99.90;;;;;;4825110;29;20208;-73
2022/11/22 06:47:29;;;;;;;143.67;58.57;;;0.90;99.90;;;;;;4840891;29;20690;-68
2022/11/22 06:49:57;;;;;;;157.13;59.57;;;1.00;99.90;;;;;;4843156;29;20209;-67
2022/11/22 06:52:26;;;;;;;149.13;59.60;;;1.10;99.90;;;;;;4843251;29;20628;-68
2022/11/22 06:54:54;;;;;;;157.53;66.20;;;1.20;99.90;;;;;;4843045;29;20219;-67
2022/11/22 06:57:23;;;;;;;165.93;67.93;;;1.20;99.90;;;;;;4842854;29;20775;-69
2022/11/22 06:59:51;;;;;;;175.47;68.70;;;1.20;99.90;;;;;;4841469;29;20215;-73
2022/11/22 07:02:21;;;;;;;181.73;75.13;;;1.30;99.90;;;;;;4823663;29;20578;-67
2022/11/22 07:04:49;;;;;;;213.87;84.20;;;1.30;99.90;;;;;;4842206;29;20221;-68
2022/11/22 07:07:37;;;;;;;223.87;86.73;;;1.30;99.90;;;;;;4842665;29;20236;-68
2022/11/22 07:10:06;;;;;;;231.07;92.87;;;1.40;99.90;;;;;;4818191;29;20214;-74
2022/11/22 07:12:35;;;;;;;242.93;98.30;;;1.40;99.90;;;;;;4823001;29;20673;-74
2022/11/22 07:15:03;;;;;;;245.83;102.90;;;1.50;99.90;;;;;;4824543;29;20205;-71
2022/11/22 07:17:33;;;;;;;251.17;101.20;;;1.40;99.90;;;;;;4824376;29;20229;-67
2022/11/22 07:20:01;;;;;;;253.40;106.57;;;1.40;99.90;;;;;;4823936;29;20201;-68
2022/11/22 07:22:29;;;;;;;301.37;150.90;;;1.50;99.90;;;;;;4817770;29;20212;-67
2022/11/22 07:24:58;;;;;;;232.77;109.57;;;1.50;99.90;;;;;;4808748;29;20254;-66
2022/11/22 07:27:26;;;;;;;262.97;132.97;;;1.50;99.90;;;;;;4824493;29;20213;-67
2022/11/22 07:29:54;;;;;;;176.60;86.10;;;1.60;99.90;;;;;;4800774;29;20214;-69
2022/11/22 07:32:23;;;;;;;163.37;75.90;;;1.60;99.90;;;;;;4806404;29;20696;-69
2022/11/22 07:34:52;;;;;;;156.30;71.97;;;1.70;99.90;;;;;;4805804;29;20199;-68
2022/11/22 07:37:21;;;;;;;154.30;66.47;;;1.70;99.90;;;;;;4806292;29;20592;-68
2022/11/22 07:39:49;;;;;;;144.07;62.80;;;1.70;99.90;;;;;;4813621;29;20207;-68
2022/11/22 07:42:17;;;;;;;119.83;51.10;;;1.70;99.90;;;;;;4811713;29;20221;-67
2022/11/22 07:44:50;;;;;;;116.73;49.63;;;1.60;99.90;;;;;;4806221;29;20203;-69
2022/11/22 07:47:19;;;;;;;115.47;51.33;;;1.60;99.90;;;;;;4828922;29;20320;-68
2022/11/22 07:49:50;;;;;;;115.47;50.50;;;1.60;99.90;;;;;;4825672;29;20209;-67
2022/11/22 07:52:20;;;;;;;122.10;51.10;;;1.70;99.90;;;;;;4842352;29;20201;-67
2022/11/22 07:54:48;;;;;;;146.43;64.03;;;1.70;99.90;;;;;;4841984;29;20201;-66
2022/11/22 07:57:16;;;;;;;152.87;65.07;;;1.70;99.90;;;;;;4842502;29;20569;-69
2022/11/22 07:59:45;;;;;;;147.50;62.43;;;1.80;99.90;;;;;;4842590;29;20205;-67
2022/11/22 08:02:13;;;;;;;140.03;64.37;;;1.80;99.90;;;;;;4842298;29;20672;-68
2022/11/22 08:04:42;;;;;;;142.30;62.40;;;1.80;99.90;;;;;;4841758;29;20609;-67
2022/11/22 08:07:11;;;;;;;143.90;60.63;;;1.80;99.90;;;;;;4842272;29;20233;-67
2022/11/22 08:09:41;;;;;;;142.37;59.57;;;1.90;99.90;;;;;;4842028;29;20205;-67
2022/11/22 08:12:10;;;;;;;120.10;54.40;;;1.90;99.90;;;;;;4842146;29;20288;-68
2022/11/22 08:14:38;;;;;;;119.03;56.53;;;1.90;99.90;;;;;;4842459;29;20591;-68
2022/11/22 08:17:06;;;;;;;122.80;56.07;;;1.90;99.90;;;;;;4840908;29;20217;-73
2022/11/22 08:19:35;;;;;;;119.13;54.83;;;1.90;99.90;;;;;;4820743;29;20220;-67
2022/11/22 08:22:03;;;;;;;126.10;57.47;;;2.00;99.90;;;;;;4816021;29;20216;-68
2022/11/22 08:24:32;;;;;;;113.80;52.53;;;2.00;99.90;;;;;;4826724;29;20201;-69
2022/11/22 08:27:02;;;;;;;182.87;82.13;;;2.00;99.90;;;;;;4842063;29;20292;-72
2022/11/22 08:29:30;;;;;;;193.70;84.70;;;2.10;99.90;;;;;;4821001;29;20216;-67
2022/11/22 08:31:59;;;;;;;179.03;81.30;;;2.20;99.90;;;;;;4820101;29;20253;-67
2022/11/22 08:34:27;;;;;;;203.57;93.10;;;2.30;99.90;;;;;;4830606;29;20292;-68
2022/11/22 08:36:55;;;;;;;181.30;80.03;;;2.40;99.90;;;;;;4841798;29;20204;-67
2022/11/22 08:39:24;;;;;;;137.87;67.60;;;2.50;99.90;;;;;;4841882;29;20201;-67
2022/11/22 08:41:52;;;;;;;143.20;67.67;;;2.60;99.90;;;;;;4840194;29;20205;-68
2022/11/22 08:44:22;;;;;;;148.33;66.03;;;2.60;99.90;;;;;;4821710;29;20214;-67
2022/11/22 08:46:50;;;;;;;168.33;74.90;;;2.60;99.90;;;;;;4837616;29;20623;-67
2022/11/22 08:49:18;;;;;;;176.67;78.00;;;2.70;99.90;;;;;;4835689;29;20213;-69
2022/11/22 08:51:47;;;;;;;154.43;74.97;;;2.60;99.90;;;;;;4841776;29;20212;-68
2022/11/22 08:54:15;;;;;;;155.60;69.47;;;2.50;99.90;;;;;;4833984;29;20545;-67
2022/11/22 08:56:44;;;;;;;153.33;68.50;;;2.50;99.90;;;;;;4819669;29;20297;-68
2022/11/22 08:59:12;;;;;;;159.23;64.97;;;2.50;99.90;;;;;;4823637;29;20253;-67
2022/11/22 09:01:42;;;;;;;161.03;71.87;;;2.50;99.90;;;;;;4822833;29;20219;-67
2022/11/22 09:04:10;;;;;;;159.93;71.47;;;2.50;99.90;;;;;;4823218;29;20222;-67
2022/11/22 09:06:39;;;;;;;141.97;56.67;;;2.60;99.90;;;;;;4820605;29;20207;-68
2022/11/22 09:09:27;;;;;;;141.87;56.50;;;2.60;99.90;;;;;;4835979;29;20290;-69
2022/11/22 09:12:11;;;;;;;149.97;59.50;;;2.50;99.90;;;;;;4811713;29;20210;-67
2022/11/22 09:14:40;;;;;;;147.97;58.40;;;2.50;99.90;;;;;;4815833;29;20208;-67
2022/11/22 09:17:10;;;;;;;156.90;65.77;;;2.50;99.90;;;;;;4822827;29;20684;-70
2022/11/22 09:19:45;;;;;;;168.20;67.83;;;2.60;99.90;;;;;;4823279;29;20281;-67
2022/11/22 09:22:13;;;;;;;146.70;59.77;;;2.60;99.90;;;;;;4823326;29;20587;-67
2022/11/22 09:24:42;;;;;;;155.93;63.63;;;2.60;99.90;;;;;;4823378;29;20202;-67
2022/11/22 09:27:10;;;;;;;216.33;89.83;;;2.70;99.90;;;;;;4823304;29;20210;-67
2022/11/22 09:29:38;;;;;;;159.43;68.27;;;2.80;99.90;;;;;;4819089;29;20240;-67
2022/11/22 09:32:10;;;;;;;140.80;59.40;;;3.00;99.90;;;;;;4827429;29;20582;-71
2022/11/22 09:34:39;;;;;;;171.23;71.10;;;3.10;99.90;;;;;;4824870;29;20745;-69
2022/11/22 09:37:07;;;;;;;193.60;84.60;;;3.10;99.90;;;;;;4841575;29;20220;-68
2022/11/22 09:39:35;;;;;;;162.57;77.30;;;3.10;99.90;;;;;;4814701;29;20710;-67
2022/11/22 09:42:21;;;;;;;487.50;220.43;;;3.20;99.90;;;;;;4806947;29;20202;-68
2022/11/22 09:45:10;;;;;;;273.30;113.17;;;3.30;99.90;;;;;;4816588;29;20202;-67
2022/11/22 09:47:51;;;;;;;215.30;105.93;;;3.30;99.90;;;;;;4844557;29;20559;-67
2022/11/22 09:50:27;;;;;;;225.50;99.80;;;3.40;99.90;;;;;;4843042;29;20234;-68
2022/11/22 09:53:01;;;;;;;166.23;77.43;;;3.30;99.90;;;;;;4844464;29;20202;-67
2022/11/22 09:55:36;;;;;;;296.17;110.53;;;3.30;99.90;;;;;;4843194;29;20209;-67
2022/11/22 09:58:10;;;;;;;206.00;95.93;;;3.30;99.90;;;;;;4828097;29;20247;-69
2022/11/22 10:00:42;;;;;;;171.60;81.43;;;3.20;99.90;;;;;;4844121;29;20225;-67
2022/11/22 10:03:24;;;;;;;213.93;101.63;;;3.30;99.90;;;;;;4844365;29;20199;-67
2022/11/22 10:05:56;;;;;;;178.33;85.53;;;3.30;99.90;;;;;;4811639;29;20242;-67
2022/11/22 10:08:35;;;;;;;121.80;58.60;;;3.40;99.90;;;;;;4807625;29;20326;-66
2022/11/22 10:11:22;;;;;;;129.90;61.40;;;3.30;99.90;;;;;;4822393;29;20293;-67
2022/11/22 10:13:56;;;;;;;123.90;58.47;;;3.30;99.90;;;;;;4825848;29;20233;-67
2022/11/22 10:16:30;;;;;;;123.10;53.17;;;3.30;99.90;;;;;;4839874;29;20673;-68
2022/11/22 10:19:04;;;;;;;136.07;61.47;;;3.30;99.90;;;;;;4825905;29;20579;-67
2022/11/22 10:21:33;;;;;;;117.97;55.10;;;3.20;99.90;;;;;;4825906;29;20301;-66
2022/11/22 10:24:02;;;;;;;82.97;39.67;;;3.30;99.90;;;;;;4826116;29;20213;-66
2022/11/22 10:26:32;;;;;;;84.50;39.43;;;3.10;99.90;;;;;;4822490;29;20575;-67
2022/11/22 10:29:10;;;;;;;93.33;40.80;;;3.00;99.90;;;;;;4815629;29;20207;-66
2022/11/22 10:31:45;;;;;;;117.43;53.47;;;3.00;99.90;;;;;;4815404;29;20209;-67
2022/11/22 10:34:23;;;;;;;83.97;39.37;;;3.10;99.90;;;;;;4809441;29;20205;-68
2022/11/22 10:36:59;;;;;;;83.57;37.23;;;3.10;99.90;;;;;;4825279;29;20210;-68
2022/11/22 10:40:04;;;;;;;69.47;33.60;;;3.10;99.90;;;;;;4825460;29;20243;-69
2022/11/22 10:42:56;;;;;;;72.07;34.27;;;3.10;99.90;;;;;;4821683;29;20210;-66
2022/11/22 10:45:30;;;;;;;70.60;32.73;;;3.20;99.90;;;;;;4830691;29;20215;-68
2022/11/22 10:48:07;;;;;;;77.73;34.47;;;3.20;99.90;;;;;;4841590;29;20209;-66
2022/11/22 10:50:49;;;;;;;74.83;34.57;;;3.10;99.90;;;;;;4841847;29;20213;-68
2022/11/22 10:53:34;;;;;;;72.73;34.50;;;3.20;99.90;;;;;;4839014;29;20421;-68
2022/11/22 10:56:08;;;;;;;89.83;43.07;;;3.20;99.90;;;;;;4840963;29;20685;-67
2022/11/22 10:58:51;;;;;;;71.00;35.53;;;3.30;99.90;;;;;;4842074;29;20721;-67
2022/11/22 11:01:29;;;;;;;71.53;33.87;;;3.30;99.90;;;;;;4841551;29;20212;-67
2022/11/22 11:03:59;;;;;;;73.20;33.80;;;3.30;99.90;;;;;;4841130;29;20304;-68
2022/11/22 11:06:34;;;;;;;78.17;38.07;;;3.30;99.90;;;;;;4840953;29;20218;-68
2022/11/22 11:09:29;;;;;;;71.10;33.07;;;3.30;99.90;;;;;;4840883;29;20242;-67
2022/11/22 11:12:21;;;;;;;77.40;30.67;;;3.20;99.90;;;;;;4825472;29;20221;-67
2022/11/22 11:14:55;;;;;;;75.57;33.53;;;3.10;99.90;;;;;;4840884;29;20208;-72
2022/11/22 11:17:27;;;;;;;60.17;29.30;;;3.20;99.90;;;;;;4841030;29;20213;-67
2022/11/22 11:20:00;;;;;;;57.90;27.27;;;3.10;99.90;;;;;;4842977;29;20229;-68
2022/11/22 11:22:34;;;;;;;68.57;27.13;;;3.00;99.90;;;;;;4842857;29;20233;-67
2022/11/22 11:25:30;;;;;;;125.23;51.37;;;3.00;99.90;;;;;;4842933;29;20740;-73
2022/11/22 11:28:03;;;;;;;51.93;25.90;;;3.10;99.90;;;;;;4826327;29;20215;-69
2022/11/22 11:30:39;;;;;;;94.40;49.17;;;3.00;99.90;;;;;;4842899;29;20204;-67
2022/11/22 11:33:23;;;;;;;54.80;26.67;;;3.10;99.90;;;;;;4842780;29;20204;-69
2022/11/22 11:35:54;;;;;;;57.13;27.77;;;3.00;99.90;;;;;;4842764;29;20201;-68
2022/11/22 11:38:33;;;;;;;54.73;27.07;;;2.90;99.90;;;;;;4842733;29;20201;-67
2022/11/22 11:41:32;;;;;;;67.60;29.27;;;2.60;99.90;;;;;;4842401;29;20213;-68
2022/11/22 11:44:05;;;;;;;58.93;28.77;;;2.50;99.90;;;;;;4768371;30;20218;-68
2022/11/22 11:46:47;;;;;;;63.50;29.13;;;2.60;99.90;;;;;;4768304;30;20212;-68
2022/11/22 11:49:16;;;;;;;63.03;28.43;;;2.50;99.90;;;;;;4768032;30;20205;-74
2022/11/22 11:51:47;;;;;;;57.73;25.40;;;2.60;99.90;;;;;;4767947;30;20299;-73
2022/11/22 11:54:20;;;;;;;57.43;28.13;;;2.50;99.90;;;;;;4767851;30;20287;-70
2022/11/22 11:56:51;;;;;;;55.17;27.53;;;2.50;99.90;;;;;;4759149;30;20310;-70
2022/11/22 11:59:21;;;;;;;66.43;29.70;;;2.50;99.90;;;;;;4749682;30;20344;-72
2022/11/22 12:01:57;;;;;;;56.87;26.73;;;2.60;99.90;;;;;;4746397;30;20235;-67
2022/11/22 12:04:29;;;;;;;58.77;27.23;;;2.40;99.90;;;;;;4750805;30;20212;-69
2022/11/22 12:07:05;;;;;;;52.70;26.47;;;2.50;99.90;;;;;;4749426;30;20319;-67
2022/11/22 12:09:37;;;;;;;55.87;25.90;;;2.50;99.90;;;;;;4749814;30;20651;-66
2022/11/22 12:12:36;;;;;;;56.37;25.60;;;2.50;99.90;;;;;;4749718;30;20237;-72
2022/11/22 12:15:13;;;;;;;46.03;21.27;;;2.50;99.90;;;;;;4749834;30;20235;-68
2022/11/22 12:17:50;;;;;;;49.73;25.50;;;2.40;99.90;;;;;;4771475;29;20214;-69
2022/11/22 12:20:23;;;;;;;51.93;26.20;;;2.30;99.90;;;;;;4823561;29;20255;-68
2022/11/22 12:23:02;;;;;;;57.13;27.13;;;2.40;99.90;;;;;;4813938;29;20293;-68
2022/11/22 12:25:36;;;;;;;48.97;24.90;;;2.40;99.90;;;;;;4817245;29;20210;-70
2022/11/22 12:28:16;;;;;;;58.70;27.73;;;2.40;99.90;;;;;;4823458;29;20206;-69
2022/11/22 12:30:48;;;;;;;54.43;26.57;;;2.40;99.90;;;;;;4824348;29;20736;-68
2022/11/22 12:33:20;;;;;;;55.57;26.10;;;2.50;99.90;;;;;;4823933;29;20198;-67
2022/11/22 12:35:53;;;;;;;59.47;27.33;;;2.40;99.90;;;;;;4823062;29;20210;-73
2022/11/22 12:38:27;;;;;;;62.33;30.90;;;2.40;99.90;;;;;;4823385;29;20209;-70
2022/11/22 12:41:00;;;;;;;61.90;27.13;;;2.50;99.90;;;;;;4823281;29;20261;-67
2022/11/22 12:43:32;;;;;;;62.77;26.33;;;2.50;99.90;;;;;;4823495;29;20554;-68
2022/11/22 12:46:08;;;;;;;57.60;25.80;;;2.40;99.90;;;;;;4823083;29;20300;-67
2022/11/22 12:48:45;;;;;;;60.40;29.43;;;2.40;99.90;;;;;;4821220;29;20261;-68
2022/11/22 12:51:21;;;;;;;61.00;29.77;;;2.40;99.90;;;;;;4805121;29;20239;-70
2022/11/22 12:53:51;;;;;;;67.70;29.50;;;2.40;99.90;;;;;;4805022;29;20213;-67
2022/11/22 12:56:27;;;;;;;71.27;30.07;;;2.50;99.90;;;;;;4804784;29;20264;-69
2022/11/22 12:59:07;;;;;;;68.00;31.80;;;2.60;99.90;;;;;;4828444;29;20682;-71
2022/11/22 13:01:42;;;;;;;56.47;28.30;;;2.60;99.90;;;;;;4838930;29;20201;-68
2022/11/22 13:04:19;;;;;;;60.83;27.03;;;2.70;99.90;;;;;;4837939;29;20669;-68
2022/11/22 13:06:54;;;;;;;53.93;26.87;;;2.70;99.90;;;;;;4840874;29;20213;-68
2022/11/22 13:09:30;;;;;;;60.10;31.27;;;2.60;99.90;;;;;;4839148;29;20650;-71
2022/11/22 13:12:04;;;;;;;69.13;30.40;;;2.60;99.90;;;;;;4840983;29;20669;-70